sensor_id;sensor_type;location;lat;lon;timestamp;temperature;humidity
51739;DHT22;37815;52.692;6.226;2022-09-24T00:00:10;15.50;94.80
51739;DHT22;37815;52.692;6.226;2022-09-24T00:05:12;15.50;94.80
51739;DHT22;37815;52.692;6.226;2022-09-24T00:10:13;15.50;94.80
51739;DHT22;37815;52.692;6.226;2022-09-24T00:15:14;15.50;94.80
51739;DHT22;37815;52.692;6.226;2022-09-24T00:20:15;15.50;94.80
51739;DHT22;37815;52.692;6.226;2022-09-24T00:25:15;15.50;94.90
51739;DHT22;37815;52.692;6.226;2022-09-24T00:30:37;15.50;94.90
51739;DHT22;37815;52.692;6.226;2022-09-24T00:35:38;15.50;94.90
51739;DHT22;37815;52.692;6.226;2022-09-24T00:40:41;15.50;94.90
51739;DHT22;37815;52.692;6.226;2022-09-24T00:45:41;15.50;94.90
51739;DHT22;37815;52.692;6.226;2022-09-24T00:50:42;15.50;94.90
51739;DHT22;37815;52.692;6.226;2022-09-24T00:55:46;15.50;94.90
51739;DHT22;37815;52.692;6.226;2022-09-24T01:00:47;15.50;95.00
51739;DHT22;37815;52.692;6.226;2022-09-24T01:05:49;15.50;95.00
51739;DHT22;37815;52.692;6.226;2022-09-24T01:21:38;15.50;95.00
51739;DHT22;37815;52.692;6.226;2022-09-24T01:27:03;15.50;95.00
51739;DHT22;37815;52.692;6.226;2022-09-24T01:32:27;15.50;95.10
51739;DHT22;37815;52.692;6.226;2022-09-24T01:37:32;15.50;95.00
51739;DHT22;37815;52.692;6.226;2022-09-24T01:42:35;15.50;95.00
51739;DHT22;37815;52.692;6.226;2022-09-24T01:47:39;15.50;95.00
51739;DHT22;37815;52.692;6.226;2022-09-24T01:57:58;15.50;95.10
51739;DHT22;37815;52.692;6.226;2022-09-24T02:03:06;15.50;95.10
51739;DHT22;37815;52.692;6.226;2022-09-24T02:08:13;15.40;95.20
51739;DHT22;37815;52.692;6.226;2022-09-24T02:13:17;15.50;95.10
51739;DHT22;37815;52.692;6.226;2022-09-24T02:18:22;15.40;95.00
51739;DHT22;37815;52.692;6.226;2022-09-24T02:23:27;15.40;95.10
51739;DHT22;37815;52.692;6.226;2022-09-24T02:28:29;15.40;95.10
51739;DHT22;37815;52.692;6.226;2022-09-24T02:33:33;15.50;95.10
51739;DHT22;37815;52.692;6.226;2022-09-24T02:38:54;15.40;95.10
51739;DHT22;37815;52.692;6.226;2022-09-24T02:43:55;15.40;95.10
51739;DHT22;37815;52.692;6.226;2022-09-24T02:48:56;15.50;95.10
51739;DHT22;37815;52.692;6.226;2022-09-24T02:53:57;15.40;95.10
51739;DHT22;37815;52.692;6.226;2022-09-24T02:58:58;15.50;95.20
51739;DHT22;37815;52.692;6.226;2022-09-24T03:04:00;15.40;95.10
51739;DHT22;37815;52.692;6.226;2022-09-24T03:09:01;15.40;95.10
51739;DHT22;37815;52.692;6.226;2022-09-24T03:14:02;15.40;95.10
51739;DHT22;37815;52.692;6.226;2022-09-24T03:19:04;15.40;95.10
51739;DHT22;37815;52.692;6.226;2022-09-24T03:24:05;15.40;95.20
51739;DHT22;37815;52.692;6.226;2022-09-24T03:29:05;15.40;95.20
51739;DHT22;37815;52.692;6.226;2022-09-24T03:34:07;15.40;95.20
51739;DHT22;37815;52.692;6.226;2022-09-24T03:39:08;15.40;95.20
51739;DHT22;37815;52.692;6.226;2022-09-24T03:44:09;15.40;95.20
51739;DHT22;37815;52.692;6.226;2022-09-24T03:49:10;15.40;95.50
51739;DHT22;37815;52.692;6.226;2022-09-24T03:54:11;15.40;95.20
51739;DHT22;37815;52.692;6.226;2022-09-24T03:59:12;15.40;95.20
51739;DHT22;37815;52.692;6.226;2022-09-24T04:04:12;15.40;95.20
51739;DHT22;37815;52.692;6.226;2022-09-24T04:09:15;15.40;95.20
51739;DHT22;37815;52.692;6.226;2022-09-24T04:14:16;15.40;95.30
51739;DHT22;37815;52.692;6.226;2022-09-24T04:19:17;15.40;95.20
51739;DHT22;37815;52.692;6.226;2022-09-24T04:24:18;15.40;95.30
51739;DHT22;37815;52.692;6.226;2022-09-24T04:29:19;15.40;95.30
51739;DHT22;37815;52.692;6.226;2022-09-24T04:34:19;15.40;95.30
51739;DHT22;37815;52.692;6.226;2022-09-24T04:39:20;15.40;95.30
51739;DHT22;37815;52.692;6.226;2022-09-24T04:44:25;15.40;95.30
51739;DHT22;37815;52.692;6.226;2022-09-24T04:49:29;15.40;95.30
51739;DHT22;37815;52.692;6.226;2022-09-24T04:54:30;15.40;95.30
51739;DHT22;37815;52.692;6.226;2022-09-24T04:59:31;15.40;95.30
51739;DHT22;37815;52.692;6.226;2022-09-24T05:04:31;15.40;95.30
51739;DHT22;37815;52.692;6.226;2022-09-24T05:09:32;15.50;95.30
51739;DHT22;37815;52.692;6.226;2022-09-24T05:14:33;15.40;95.30
51739;DHT22;37815;52.692;6.226;2022-09-24T05:19:34;15.40;95.30
51739;DHT22;37815;52.692;6.226;2022-09-24T05:24:34;15.40;95.40
51739;DHT22;37815;52.692;6.226;2022-09-24T05:29:37;15.40;95.40
51739;DHT22;37815;52.692;6.226;2022-09-24T05:34:38;15.50;95.40
51739;DHT22;37815;52.692;6.226;2022-09-24T05:39:40;15.40;95.30
51739;DHT22;37815;52.692;6.226;2022-09-24T05:44:41;15.40;95.30
51739;DHT22;37815;52.692;6.226;2022-09-24T05:49:43;15.40;95.30
51739;DHT22;37815;52.692;6.226;2022-09-24T05:54:43;15.40;95.30
51739;DHT22;37815;52.692;6.226;2022-09-24T05:59:44;15.40;95.30
51739;DHT22;37815;52.692;6.226;2022-09-24T06:04:45;15.40;95.30
51739;DHT22;37815;52.692;6.226;2022-09-24T06:09:45;15.40;95.30
51739;DHT22;37815;52.692;6.226;2022-09-24T06:14:47;15.40;95.30
51739;DHT22;37815;52.692;6.226;2022-09-24T06:19:47;15.40;95.40
51739;DHT22;37815;52.692;6.226;2022-09-24T06:24:48;15.40;95.30
51739;DHT22;37815;52.692;6.226;2022-09-24T06:29:50;15.40;95.30
51739;DHT22;37815;52.692;6.226;2022-09-24T06:34:51;15.40;95.40
51739;DHT22;37815;52.692;6.226;2022-09-24T06:39:52;15.40;95.60
51739;DHT22;37815;52.692;6.226;2022-09-24T06:44:53;15.40;95.30
51739;DHT22;37815;52.692;6.226;2022-09-24T06:49:53;15.40;95.30
51739;DHT22;37815;52.692;6.226;2022-09-24T06:54:54;15.40;95.30
51739;DHT22;37815;52.692;6.226;2022-09-24T06:59:55;15.40;95.30
51739;DHT22;37815;52.692;6.226;2022-09-24T07:04:56;15.40;95.40
51739;DHT22;37815;52.692;6.226;2022-09-24T07:09:58;15.40;95.40
51739;DHT22;37815;52.692;6.226;2022-09-24T07:15:00;15.40;95.40
51739;DHT22;37815;52.692;6.226;2022-09-24T07:20:01;15.40;95.40
51739;DHT22;37815;52.692;6.226;2022-09-24T07:25:03;15.40;95.40
51739;DHT22;37815;52.692;6.226;2022-09-24T07:30:05;15.40;95.40
51739;DHT22;37815;52.692;6.226;2022-09-24T07:35:06;15.40;95.40
51739;DHT22;37815;52.692;6.226;2022-09-24T07:40:07;15.40;95.40
51739;DHT22;37815;52.692;6.226;2022-09-24T07:45:09;15.40;95.40
51739;DHT22;37815;52.692;6.226;2022-09-24T07:50:10;15.40;95.40
51739;DHT22;37815;52.692;6.226;2022-09-24T07:55:15;15.40;95.40
51739;DHT22;37815;52.692;6.226;2022-09-24T08:00:16;14.90;95.30
51739;DHT22;37815;52.692;6.226;2022-09-24T08:05:17;15.40;95.40
51739;DHT22;37815;52.692;6.226;2022-09-24T08:10:18;15.40;95.40
51739;DHT22;37815;52.692;6.226;2022-09-24T08:15:19;15.40;95.40
51739;DHT22;37815;52.692;6.226;2022-09-24T08:20:22;15.40;95.40
51739;DHT22;37815;52.692;6.226;2022-09-24T08:25:24;15.50;95.40
51739;DHT22;37815;52.692;6.226;2022-09-24T08:30:24;15.50;95.40
51739;DHT22;37815;52.692;6.226;2022-09-24T08:35:25;15.50;95.60
51739;DHT22;37815;52.692;6.226;2022-09-24T08:40:29;15.50;95.30
51739;DHT22;37815;52.692;6.226;2022-09-24T08:45:36;15.50;95.40
51739;DHT22;37815;52.692;6.226;2022-09-24T08:51:02;15.50;95.30
51739;DHT22;37815;52.692;6.226;2022-09-24T08:56:06;15.50;95.30
51739;DHT22;37815;52.692;6.226;2022-09-24T09:11:40;15.20;95.10
51739;DHT22;37815;52.692;6.226;2022-09-24T09:16:54;15.60;95.20
51739;DHT22;37815;52.692;6.226;2022-09-24T09:22:02;15.60;95.20
51739;DHT22;37815;52.692;6.226;2022-09-24T09:27:11;15.60;95.50
51739;DHT22;37815;52.692;6.226;2022-09-24T09:32:38;15.60;95.50
51739;DHT22;37815;52.692;6.226;2022-09-24T09:43:10;15.70;95.50
51739;DHT22;37815;52.692;6.226;2022-09-24T10:12:13;15.80;95.80
51739;DHT22;37815;52.692;6.226;2022-09-24T10:17:21;15.70;96.10
51739;DHT22;37815;52.692;6.226;2022-09-24T10:22:25;15.80;95.90
51739;DHT22;37815;52.692;6.226;2022-09-24T10:27:35;15.80;95.80
51739;DHT22;37815;52.692;6.226;2022-09-24T10:32:37;15.90;95.80
51739;DHT22;37815;52.692;6.226;2022-09-24T10:37:52;15.90;96.00
51739;DHT22;37815;52.692;6.226;2022-09-24T10:42:58;15.90;95.80
51739;DHT22;37815;52.692;6.226;2022-09-24T11:04:07;16.00;95.80
51739;DHT22;37815;52.692;6.226;2022-09-24T11:14:59;15.90;95.80
51739;DHT22;37815;52.692;6.226;2022-09-24T11:30:31;16.00;95.70
51739;DHT22;37815;52.692;6.226;2022-09-24T11:57:27;16.00;95.80
51739;DHT22;37815;52.692;6.226;2022-09-24T12:02:36;16.00;95.70
51739;DHT22;37815;52.692;6.226;2022-09-24T12:07:43;16.00;95.80
51739;DHT22;37815;52.692;6.226;2022-09-24T12:12:47;16.00;95.70
51739;DHT22;37815;52.692;6.226;2022-09-24T12:17:56;16.00;95.70
51739;DHT22;37815;52.692;6.226;2022-09-24T12:23:04;16.10;95.80
51739;DHT22;37815;52.692;6.226;2022-09-24T12:28:12;16.10;95.80
51739;DHT22;37815;52.692;6.226;2022-09-24T12:33:39;16.10;95.80
51739;DHT22;37815;52.692;6.226;2022-09-24T12:39:01;16.20;96.20
51739;DHT22;37815;52.692;6.226;2022-09-24T12:54:30;16.40;95.80
51739;DHT22;37815;52.692;6.226;2022-09-24T12:59:32;16.50;95.90
51739;DHT22;37815;52.692;6.226;2022-09-24T13:04:33;16.30;95.90
51739;DHT22;37815;52.692;6.226;2022-09-24T13:09:38;16.20;96.00
51739;DHT22;37815;52.692;6.226;2022-09-24T13:14:42;16.20;96.10
51739;DHT22;37815;52.692;6.226;2022-09-24T13:19:54;16.20;96.20
51739;DHT22;37815;52.692;6.226;2022-09-24T13:30:22;16.10;96.20
51739;DHT22;37815;52.692;6.226;2022-09-24T13:35:31;16.20;96.20
51739;DHT22;37815;52.692;6.226;2022-09-24T13:40:37;16.20;96.10
51739;DHT22;37815;52.692;6.226;2022-09-24T13:45:41;16.20;96.10
51739;DHT22;37815;52.692;6.226;2022-09-24T13:50:48;16.20;96.10
51739;DHT22;37815;52.692;6.226;2022-09-24T13:55:59;16.30;96.10
51739;DHT22;37815;52.692;6.226;2022-09-24T14:01:25;16.00;95.90
51739;DHT22;37815;52.692;6.226;2022-09-24T14:06:37;16.30;96.00
51739;DHT22;37815;52.692;6.226;2022-09-24T14:11:50;15.90;95.90
51739;DHT22;37815;52.692;6.226;2022-09-24T14:17:10;16.30;96.00
51739;DHT22;37815;52.692;6.226;2022-09-24T14:27:22;16.20;96.00
51739;DHT22;37815;52.692;6.226;2022-09-24T14:32:29;16.20;96.00
51739;DHT22;37815;52.692;6.226;2022-09-24T14:37:38;16.20;96.00
51739;DHT22;37815;52.692;6.226;2022-09-24T14:42:46;16.20;96.10
51739;DHT22;37815;52.692;6.226;2022-09-24T14:48:02;16.20;96.10
51739;DHT22;37815;52.692;6.226;2022-09-24T14:53:12;16.20;96.10
51739;DHT22;37815;52.692;6.226;2022-09-24T14:58:24;16.20;96.10
51739;DHT22;37815;52.692;6.226;2022-09-24T15:08:40;16.20;96.10
51739;DHT22;37815;52.692;6.226;2022-09-24T15:13:41;16.20;96.10
51739;DHT22;37815;52.692;6.226;2022-09-24T15:18:42;16.20;96.10
51739;DHT22;37815;52.692;6.226;2022-09-24T15:23:43;16.20;96.10
51739;DHT22;37815;52.692;6.226;2022-09-24T15:28:43;16.20;96.10
51739;DHT22;37815;52.692;6.226;2022-09-24T15:33:44;16.20;96.10
51739;DHT22;37815;52.692;6.226;2022-09-24T15:38:49;16.20;96.10
51739;DHT22;37815;52.692;6.226;2022-09-24T15:43:56;16.10;96.10
51739;DHT22;37815;52.692;6.226;2022-09-24T15:48:57;16.10;96.00
51739;DHT22;37815;52.692;6.226;2022-09-24T15:53:58;15.70;96.20
51739;DHT22;37815;52.692;6.226;2022-09-24T15:58:58;15.60;96.60
51739;DHT22;37815;52.692;6.226;2022-09-24T16:03:59;15.70;96.60
51739;DHT22;37815;52.692;6.226;2022-09-24T16:09:00;15.80;96.50
51739;DHT22;37815;52.692;6.226;2022-09-24T16:14:01;15.90;96.50
51739;DHT22;37815;52.692;6.226;2022-09-24T16:19:01;15.90;96.50
51739;DHT22;37815;52.692;6.226;2022-09-24T16:24:02;16.00;96.50
51739;DHT22;37815;52.692;6.226;2022-09-24T16:29:04;16.00;96.50
51739;DHT22;37815;52.692;6.226;2022-09-24T16:34:05;16.00;96.60
51739;DHT22;37815;52.692;6.226;2022-09-24T16:39:06;16.00;96.50
51739;DHT22;37815;52.692;6.226;2022-09-24T16:44:08;16.00;96.50
51739;DHT22;37815;52.692;6.226;2022-09-24T16:49:10;16.00;96.60
51739;DHT22;37815;52.692;6.226;2022-09-24T16:54:11;15.80;96.70
51739;DHT22;37815;52.692;6.226;2022-09-24T16:59:13;15.70;96.80
51739;DHT22;37815;52.692;6.226;2022-09-24T17:04:15;15.70;96.80
51739;DHT22;37815;52.692;6.226;2022-09-24T17:09:16;15.80;97.10
51739;DHT22;37815;52.692;6.226;2022-09-24T17:14:38;15.80;96.70
51739;DHT22;37815;52.692;6.226;2022-09-24T17:19:38;15.80;96.70
51739;DHT22;37815;52.692;6.226;2022-09-24T17:24:39;15.90;96.60
51739;DHT22;37815;52.692;6.226;2022-09-24T17:29:43;15.90;96.60
51739;DHT22;37815;52.692;6.226;2022-09-24T17:34:44;15.90;96.70
51739;DHT22;37815;52.692;6.226;2022-09-24T17:39:45;15.90;96.60
51739;DHT22;37815;52.692;6.226;2022-09-24T17:44:46;15.90;96.60
51739;DHT22;37815;52.692;6.226;2022-09-24T17:49:47;15.90;96.50
51739;DHT22;37815;52.692;6.226;2022-09-24T17:54:51;15.90;96.50
51739;DHT22;37815;52.692;6.226;2022-09-24T17:59:51;15.90;96.50
51739;DHT22;37815;52.692;6.226;2022-09-24T18:04:52;15.90;96.50
51739;DHT22;37815;52.692;6.226;2022-09-24T18:09:53;15.90;96.40
51739;DHT22;37815;52.692;6.226;2022-09-24T18:14:55;15.90;96.40
51739;DHT22;37815;52.692;6.226;2022-09-24T18:19:56;15.90;96.40
51739;DHT22;37815;52.692;6.226;2022-09-24T18:24:56;15.90;96.40
51739;DHT22;37815;52.692;6.226;2022-09-24T18:30:00;15.90;96.40
51739;DHT22;37815;52.692;6.226;2022-09-24T18:35:02;15.90;96.40
51739;DHT22;37815;52.692;6.226;2022-09-24T18:40:04;15.80;96.50
51739;DHT22;37815;52.692;6.226;2022-09-24T18:45:05;15.80;96.30
51739;DHT22;37815;52.692;6.226;2022-09-24T18:50:06;15.80;96.30
51739;DHT22;37815;52.692;6.226;2022-09-24T18:55:08;15.80;96.30
51739;DHT22;37815;52.692;6.226;2022-09-24T19:00:09;15.80;96.30
51739;DHT22;37815;52.692;6.226;2022-09-24T19:05:30;15.80;96.30
51739;DHT22;37815;52.692;6.226;2022-09-24T19:10:31;15.80;96.30
51739;DHT22;37815;52.692;6.226;2022-09-24T19:15:39;15.80;96.30
51739;DHT22;37815;52.692;6.226;2022-09-24T19:20:44;15.80;96.20
51739;DHT22;37815;52.692;6.226;2022-09-24T19:25:45;15.70;96.20
51739;DHT22;37815;52.692;6.226;2022-09-24T19:30:46;15.70;96.20
51739;DHT22;37815;52.692;6.226;2022-09-24T19:35:56;15.70;96.20
51739;DHT22;37815;52.692;6.226;2022-09-24T19:41:00;15.70;96.20
51739;DHT22;37815;52.692;6.226;2022-09-24T19:46:05;15.70;96.20
51739;DHT22;37815;52.692;6.226;2022-09-24T19:51:21;15.70;96.20
51739;DHT22;37815;52.692;6.226;2022-09-24T19:56:23;15.60;96.10
51739;DHT22;37815;52.692;6.226;2022-09-24T20:01:27;15.60;96.10
51739;DHT22;37815;52.692;6.226;2022-09-24T20:06:30;15.60;96.10
51739;DHT22;37815;52.692;6.226;2022-09-24T20:11:33;15.60;96.10
51739;DHT22;37815;52.692;6.226;2022-09-24T20:16:34;15.60;96.10
51739;DHT22;37815;52.692;6.226;2022-09-24T20:21:35;15.50;96.00
51739;DHT22;37815;52.692;6.226;2022-09-24T20:26:38;15.50;96.00
51739;DHT22;37815;52.692;6.226;2022-09-24T20:31:57;15.50;96.00
51739;DHT22;37815;52.692;6.226;2022-09-24T20:36:59;15.50;96.00
51739;DHT22;37815;52.692;6.226;2022-09-24T20:42:00;15.50;96.00
51739;DHT22;37815;52.692;6.226;2022-09-24T20:47:01;15.50;96.00
51739;DHT22;37815;52.692;6.226;2022-09-24T20:52:02;15.40;95.90
51739;DHT22;37815;52.692;6.226;2022-09-24T20:57:05;15.40;95.90
51739;DHT22;37815;52.692;6.226;2022-09-24T21:02:06;15.40;95.90
51739;DHT22;37815;52.692;6.226;2022-09-24T21:07:07;15.40;95.90
51739;DHT22;37815;52.692;6.226;2022-09-24T21:12:07;15.30;95.90
51739;DHT22;37815;52.692;6.226;2022-09-24T21:17:08;15.30;95.80
51739;DHT22;37815;52.692;6.226;2022-09-24T21:22:09;15.30;95.80
51739;DHT22;37815;52.692;6.226;2022-09-24T21:27:12;15.30;95.80
51739;DHT22;37815;52.692;6.226;2022-09-24T21:32:16;15.30;95.80
51739;DHT22;37815;52.692;6.226;2022-09-24T21:37:17;15.30;95.80
51739;DHT22;37815;52.692;6.226;2022-09-24T21:42:18;15.20;95.80
51739;DHT22;37815;52.692;6.226;2022-09-24T21:47:19;15.30;95.80
51739;DHT22;37815;52.692;6.226;2022-09-24T21:52:19;15.20;95.80
51739;DHT22;37815;52.692;6.226;2022-09-24T21:57:20;15.20;95.70
51739;DHT22;37815;52.692;6.226;2022-09-24T22:02:21;15.10;95.70
51739;DHT22;37815;52.692;6.226;2022-09-24T22:07:22;15.10;95.70
51739;DHT22;37815;52.692;6.226;2022-09-24T22:12:23;15.10;95.90
51739;DHT22;37815;52.692;6.226;2022-09-24T22:17:23;15.10;95.60
51739;DHT22;37815;52.692;6.226;2022-09-24T22:22:24;15.10;95.60
51739;DHT22;37815;52.692;6.226;2022-09-24T22:27:25;15.10;95.60
51739;DHT22;37815;52.692;6.226;2022-09-24T22:32:25;15.00;95.60
51739;DHT22;37815;52.692;6.226;2022-09-24T22:37:26;15.00;95.60
51739;DHT22;37815;52.692;6.226;2022-09-24T22:42:27;15.00;95.80
51739;DHT22;37815;52.692;6.226;2022-09-24T22:47:27;15.00;95.60
51739;DHT22;37815;52.692;6.226;2022-09-24T22:52:28;15.00;95.50
51739;DHT22;37815;52.692;6.226;2022-09-24T22:57:29;15.00;95.50
51739;DHT22;37815;52.692;6.226;2022-09-24T23:02:33;14.90;95.50
51739;DHT22;37815;52.692;6.226;2022-09-24T23:07:34;14.90;95.40
51739;DHT22;37815;52.692;6.226;2022-09-24T23:12:35;14.90;95.40
51739;DHT22;37815;52.692;6.226;2022-09-24T23:17:36;14.90;95.40
51739;DHT22;37815;52.692;6.226;2022-09-24T23:22:37;14.90;95.30
51739;DHT22;37815;52.692;6.226;2022-09-24T23:27:38;14.90;95.30
51739;DHT22;37815;52.692;6.226;2022-09-24T23:32:38;14.90;95.30
51739;DHT22;37815;52.692;6.226;2022-09-24T23:37:39;14.90;95.30
51739;DHT22;37815;52.692;6.226;2022-09-24T23:42:40;14.80;95.20
51739;DHT22;37815;52.692;6.226;2022-09-24T23:47:40;14.80;95.20
51739;DHT22;37815;52.692;6.226;2022-09-24T23:52:41;14.80;95.20
51739;DHT22;37815;52.692;6.226;2022-09-24T23:57:42;14.80;95.20
